Terminal Aerodrome Forecast
Issued by NWS Missoula, MT

Home | Current Version | Previous Version | Text Only | Print | Product List | Glossary On
Versions: 1 2 3 4 5 6 7 8 9 10 11 12 13 14 15 16 17 18 19 20 21 22
482
FTUS45 KMSO 202326
TAFMSO
TAF
KMSO 202326Z 2100/2124 11007KT P6SM -SHRA SCT030 BKN035
     FM210400 VRB05KT P6SM VCSH FEW010 BKN025 BKN050
     FM210900 17005KT 6SM BR BKN030
     FM211500 VRB04KT P6SM SCT030
     FM212100 31008KT P6SM BKN050=

USA.gov is the U.S. government's official web portal to all federal, state and local government web resources and services.